Time;durP1;ratioP1;P1;durP2;ratioP2;P2;SDS_P1;SDS_P2;PMS_P1;PMS_P2;Temp;Humidity;BMP_temperature;BMP_pressure;BME280_temperature;BME280_humidity;BME280_pressure;Samples;Min_cycle;Max_cycle;Signal;HPM_P1;HPM_P2
2022/10/16 00:00:56;;;;;;;14.65;8.73;;;;;;;8.50;100.00;98343.16;5081727;28;20024;-82
2022/10/16 00:03:22;;;;;;;15.30;8.85;;;;;;;8.48;100.00;98350.34;5074813;28;20056;-82
2022/10/16 00:05:48;;;;;;;15.63;9.35;;;;;;;8.51;100.00;98371.56;5062240;28;20040;-82
2022/10/16 00:08:13;;;;;;;20.23;9.15;;;;;;;8.28;100.00;98350.25;5059619;28;20026;-82
2022/10/16 00:10:40;;;;;;;20.13;10.25;;;;;;;8.36;100.00;98377.50;5069563;28;20480;-82
2022/10/16 00:13:05;;;;;;;24.13;10.10;;;;;;;8.39;100.00;98378.25;5057305;28;20103;-81
2022/10/16 00:15:36;;;;;;;18.85;9.90;;;;;;;8.38;100.00;98391.63;5065086;28;20459;-83
2022/10/16 00:18:02;;;;;;;19.50;9.90;;;;;;;8.28;100.00;98375.13;5069191;28;20473;-82
2022/10/16 00:20:27;;;;;;;22.65;10.70;;;;;;;8.35;100.00;98392.63;5069794;28;20560;-83
2022/10/16 00:22:53;;;;;;;19.45;10.50;;;;;;;8.29;100.00;98382.22;5077842;28;20131;-82
2022/10/16 00:25:18;;;;;;;18.67;9.70;;;;;;;8.30;100.00;98394.63;5085956;28;20494;-82
2022/10/16 00:27:44;;;;;;;17.02;10.45;;;;;;;8.30;100.00;98396.41;5069282;28;20107;-81
2022/10/16 00:30:10;;;;;;;20.42;9.77;;;;;;;8.17;100.00;98395.97;5061175;28;20453;-82
2022/10/16 00:32:35;;;;;;;22.15;9.88;;;;;;;8.17;100.00;98403.97;5072561;28;20024;-82
2022/10/16 00:35:03;;;;;;;23.55;10.57;;;;;;;8.13;100.00;98399.69;5061927;28;20023;-81
2022/10/16 00:37:28;;;;;;;20.02;10.13;;;;;;;8.02;100.00;98389.44;5073149;28;20039;-81
2022/10/16 00:39:54;;;;;;;21.13;9.57;;;;;;;7.95;100.00;98395.94;5057841;28;20025;-82
2022/10/16 00:42:19;;;;;;;16.80;9.90;;;;;;;7.81;100.00;98379.63;5056466;28;20483;-82
2022/10/16 00:44:53;;;;;;;20.88;10.10;;;;;;;7.75;100.00;98394.94;5071565;28;20119;-82
2022/10/16 00:47:30;;;;;;;16.27;9.50;;;;;;;7.64;100.00;98398.88;5064880;28;20058;-82
2022/10/16 00:50:22;;;;;;;20.35;10.05;;;;;;;7.72;100.00;98419.03;5064886;28;20122;-82
2022/10/16 00:52:49;;;;;;;14.70;9.48;;;;;;;7.67;100.00;98418.31;5071509;28;20025;-82
2022/10/16 00:55:15;;;;;;;20.38;10.40;;;;;;;7.46;100.00;98390.69;5079667;28;20020;-81
2022/10/16 00:57:41;;;;;;;18.75;11.25;;;;;;;7.50;100.00;98408.28;5064324;28;20402;-83
2022/10/16 01:00:10;;;;;;;19.45;10.65;;;;;;;7.47;100.00;98416.38;5073154;28;20024;-81
2022/10/16 01:02:35;;;;;;;20.98;11.27;;;;;;;7.47;100.00;98427.03;5057690;28;20028;-83
2022/10/16 01:05:02;;;;;;;20.88;10.40;;;;;;;7.46;100.00;98430.59;5057062;28;20024;-81
2022/10/16 01:07:43;;;;;;;17.02;9.63;;;;;;;7.39;100.00;98424.63;5067872;28;20033;-81
2022/10/16 01:10:29;;;;;;;17.73;9.88;;;;;;;7.40;100.00;98428.16;5061331;28;20079;-81
2022/10/16 01:13:15;;;;;;;18.92;9.88;;;;;;;7.30;100.00;98432.94;5059594;28;20460;-81
2022/10/16 01:15:53;;;;;;;19.92;9.90;;;;;;;7.25;100.00;98420.72;5076244;28;20413;-81
2022/10/16 01:18:25;;;;;;;21.85;10.27;;;;;;;7.30;100.00;98424.06;5080221;28;20074;-81
2022/10/16 01:21:04;;;;;;;19.25;10.27;;;;;;;7.24;100.00;98417.19;5080217;28;20084;-83
2022/10/16 01:23:44;;;;;;;19.08;9.52;;;;;;;7.19;100.00;98420.94;5065469;28;20507;-81
2022/10/16 01:26:32;;;;;;;15.30;9.07;;;;;;;7.22;100.00;98437.66;5073831;28;20115;-82
2022/10/16 01:29:05;;;;;;;19.73;9.05;;;;;;;7.11;100.00;98423.84;5067024;28;20035;-81
2022/10/16 01:31:34;;;;;;;15.90;8.75;;;;;;;7.08;100.00;98423.94;5060445;28;20024;-82
2022/10/16 01:34:07;;;;;;;15.57;9.10;;;;;;;7.06;100.00;98425.78;5084796;28;20021;-82
2022/10/16 01:36:40;;;;;;;20.05;9.60;;;;;;;7.00;100.00;98437.50;5062433;28;20516;-82
2022/10/16 01:39:09;;;;;;;17.75;8.52;;;;;;;7.01;100.00;98435.72;5060688;28;20214;-82
2022/10/16 01:41:41;;;;;;;16.85;9.38;;;;;;;7.02;100.00;98440.97;5083669;28;20047;-83
2022/10/16 01:44:14;;;;;;;17.75;8.32;;;;;;;6.99;100.00;98441.09;5065732;28;20028;-82
2022/10/16 01:46:41;;;;;;;13.32;8.30;;;;;;;6.96;100.00;98446.50;5081270;28;20032;-81
2022/10/16 01:49:09;;;;;;;24.40;8.25;;;;;;;6.80;100.00;98423.16;5068703;28;20078;-81
2022/10/16 01:51:35;;;;;;;16.17;8.65;;;;;;;6.87;100.00;98441.50;5070517;28;20032;-81
2022/10/16 01:54:02;;;;;;;16.08;8.13;;;;;;;6.92;100.00;98449.34;5085139;28;20487;-82
2022/10/16 01:56:28;;;;;;;16.85;8.65;;;;;;;6.91;100.00;98453.78;5067839;28;20032;-82
2022/10/16 01:59:15;;;;;;;14.85;7.38;;;;;;;6.82;100.00;98454.06;5064474;28;20028;-82
2022/10/16 02:01:44;;;;;;;11.88;7.13;;;;;;;6.72;100.00;98444.66;5067295;28;20029;-82
2022/10/16 02:04:35;;;;;;;20.50;8.23;;;;;;;6.63;100.00;98439.63;5070231;28;20028;-81
2022/10/16 02:07:01;;;;;;;16.33;7.72;;;;;;;6.69;100.00;98458.03;5061559;28;20028;-81
2022/10/16 02:09:26;;;;;;;12.02;7.15;;;;;;;6.40;100.00;98419.09;5068270;28;20035;-81
2022/10/16 02:11:54;;;;;;;13.57;7.47;;;;;;;6.71;100.00;98466.81;5084850;28;20107;-81
2022/10/16 02:14:20;;;;;;;18.90;7.53;;;;;;;6.59;100.00;98451.28;5090308;28;20039;-82
2022/10/16 02:16:46;;;;;;;16.38;7.82;;;;;;;6.59;100.00;98461.03;5068524;28;20028;-82
2022/10/16 02:19:18;;;;;;;14.18;8.25;;;;;;;6.64;100.00;98465.31;5062127;28;20031;-83
2022/10/16 02:21:54;;;;;;;17.98;8.13;;;;;;;6.66;100.00;98458.13;5062040;28;20021;-81
2022/10/16 02:24:39;;;;;;;14.60;8.02;;;;;;;6.80;100.00;98484.31;5066945;28;20032;-81
2022/10/16 02:27:28;;;;;;;16.48;8.18;;;;;;;6.77;100.00;98485.25;5062711;28;20052;-82
2022/10/16 02:30:07;;;;;;;19.30;8.27;;;;;;;6.73;100.00;98483.63;5055360;28;20093;-81
2022/10/16 02:32:34;;;;;;;13.43;7.75;;;;;;;6.56;100.00;98464.66;5063444;28;20028;-82
2022/10/16 02:35:00;;;;;;;15.77;8.48;;;;;;;6.59;100.00;98479.63;5076468;28;20020;-82
2022/10/16 02:37:27;;;;;;;19.67;8.30;;;;;;;6.46;100.00;98469.38;5061103;28;20463;-82
2022/10/16 02:39:53;;;;;;;13.30;8.43;;;;;;;6.44;100.00;98478.31;5060364;28;20033;-82
2022/10/16 02:42:19;;;;;;;12.75;7.85;;;;;;;6.37;100.00;98471.44;5064301;28;20036;-82
2022/10/16 02:44:44;;;;;;;16.95;8.65;;;;;;;6.31;100.00;98483.13;5062765;28;20541;-82
2022/10/16 02:47:10;;;;;;;17.20;9.07;;;;;;;6.28;100.00;98492.97;5079282;28;20052;-83
2022/10/16 02:49:35;;;;;;;22.80;11.38;;;;;;;6.16;100.00;98480.94;5063471;28;20495;-82
2022/10/16 02:52:01;;;;;;;22.00;10.13;;;;;;;6.21;100.00;98502.06;5063608;28;20488;-82
2022/10/16 02:54:27;;;;;;;15.15;8.93;;;;;;;5.96;100.00;98475.34;5072759;28;20168;-82
2022/10/16 02:56:52;;;;;;;19.63;10.20;;;;;;;5.99;100.00;98488.53;5080182;28;20088;-81
2022/10/16 02:59:18;;;;;;;17.08;10.43;;;;;;;5.92;100.00;98490.50;5063843;28;20031;-81
2022/10/16 03:01:43;;;;;;;18.70;10.80;;;;;;;5.75;100.00;98476.78;5066714;28;20024;-82
2022/10/16 03:04:09;;;;;;;19.50;9.43;;;;;;;5.76;100.00;98491.78;5087955;28;20082;-82
2022/10/16 03:06:35;;;;;;;20.23;10.23;;;;;;;5.85;100.00;98504.84;5062820;28;20032;-82
2022/10/16 03:09:00;;;;;;;14.27;8.40;;;;;;;5.81;100.00;98499.66;5066836;28;20095;-82
2022/10/16 03:11:26;;;;;;;17.42;8.30;;;;;;;5.86;100.00;98517.22;5075590;28;20451;-82
2022/10/16 03:13:51;;;;;;;14.95;7.75;;;;;;;5.80;100.00;98501.44;5063790;28;20052;-82
2022/10/16 03:16:17;;;;;;;13.10;7.80;;;;;;;5.82;100.00;98499.59;5083348;28;20034;-82
2022/10/16 03:18:43;;;;;;;18.67;7.55;;;;;;;5.67;100.00;98476.13;5084115;28;20032;-81
2022/10/16 03:21:08;;;;;;;14.48;7.45;;;;;;;5.82;100.00;98506.66;5069627;28;20040;-82
2022/10/16 03:23:34;;;;;;;15.85;8.00;;;;;;;5.64;100.00;98500.09;5059355;28;20032;-82
2022/10/16 03:25:59;;;;;;;18.05;7.57;;;;;;;5.56;100.00;98486.16;5059918;28;20039;-82
2022/10/16 03:28:25;;;;;;;17.52;8.05;;;;;;;5.62;100.00;98507.25;5065278;28;20549;-83
2022/10/16 03:30:50;;;;;;;12.02;7.47;;;;;;;5.62;100.00;98506.38;5070946;28;20031;-81
2022/10/16 03:33:16;;;;;;;18.25;8.10;;;;;;;5.60;100.00;98508.19;5058071;28;20107;-82
2022/10/16 03:35:42;;;;;;;17.02;8.82;;;;;;;5.64;100.00;98508.06;5067200;28;20093;-82
2022/10/16 03:38:07;;;;;;;19.75;7.70;;;;;;;5.69;100.00;98507.94;5059501;28;20089;-81
2022/10/16 03:40:33;;;;;;;17.58;8.38;;;;;;;5.59;100.00;98511.75;5066197;28;20111;-80
2022/10/16 03:42:59;;;;;;;15.27;7.43;;;;;;;5.55;100.00;98515.38;5061549;28;20049;-81
2022/10/16 03:45:25;;;;;;;16.05;7.80;;;;;;;5.51;100.00;98521.72;5066131;28;20024;-82
2022/10/16 03:47:50;;;;;;;17.67;8.30;;;;;;;5.52;100.00;98521.66;5078405;28;20019;-82
2022/10/16 03:50:16;;;;;;;13.75;7.55;;;;;;;5.46;100.00;98521.81;5048888;28;20048;-82
2022/10/16 03:52:41;;;;;;;13.30;6.95;;;;;;;5.57;100.00;98535.66;5059230;28;20063;-81
2022/10/16 03:55:07;;;;;;;13.00;6.82;;;;;;;5.57;100.00;98535.66;5060399;28;20534;-82
2022/10/16 03:57:33;;;;;;;13.70;7.75;;;;;;;5.65;100.00;98533.69;5065940;28;20105;-82
2022/10/16 03:59:59;;;;;;;14.98;7.72;;;;;;;5.75;100.00;98543.13;5062008;28;20025;-82
2022/10/16 04:02:24;;;;;;;15.23;7.68;;;;;;;5.81;100.00;98536.81;5062138;28;20035;-81
2022/10/16 04:04:50;;;;;;;19.75;8.55;;;;;;;5.89;100.00;98538.38;5078295;28;20166;-81
2022/10/16 04:07:15;;;;;;;18.13;9.00;;;;;;;5.77;100.00;98520.09;5082615;28;20036;-81
2022/10/16 04:09:41;;;;;;;17.90;10.15;;;;;;;5.70;100.00;98505.22;5064612;28;20027;-81
2022/10/16 04:12:07;;;;;;;24.30;13.25;;;;;;;5.84;100.00;98536.72;5082762;28;20111;-81
2022/10/16 04:14:33;;;;;;;30.10;14.77;;;;;;;5.82;100.00;98530.56;5065884;28;20028;-82
2022/10/16 04:16:59;;;;;;;28.85;13.43;;;;;;;5.84;100.00;98552.66;5061892;28;20013;-82
2022/10/16 04:19:25;;;;;;;30.77;13.43;;;;;;;5.83;100.00;98554.44;5082711;28;20025;-81
2022/10/16 04:21:50;;;;;;;28.92;14.13;;;;;;;5.93;100.00;98563.94;5055615;28;20139;-81
2022/10/16 04:24:16;;;;;;;26.33;13.57;;;;;;;6.07;100.00;98574.16;5064910;28;20027;-81
2022/10/16 04:26:41;;;;;;;29.55;14.40;;;;;;;6.11;100.00;98577.59;5081319;28;20025;-82
2022/10/16 04:29:07;;;;;;;26.30;13.35;;;;;;;6.21;100.00;98587.06;5085963;28;20032;-81
2022/10/16 04:31:33;;;;;;;25.33;12.27;;;;;;;6.19;100.00;98575.59;5065526;28;20028;-81
2022/10/16 04:33:59;;;;;;;27.30;13.30;;;;;;;6.24;100.00;98571.03;5057148;28;20158;-81
2022/10/16 04:36:24;;;;;;;29.70;12.85;;;;;;;6.32;100.00;98590.28;5080385;28;20488;-81
2022/10/16 04:38:50;;;;;;;36.58;13.15;;;;;;;6.42;100.00;98602.41;5064705;28;20020;-82
2022/10/16 04:41:15;;;;;;;23.67;11.15;;;;;;;6.40;100.00;98589.16;5059712;28;20409;-82
2022/10/16 04:43:41;;;;;;;20.92;10.35;;;;;;;6.44;100.00;98584.63;5071492;28;20040;-82
2022/10/16 04:46:06;;;;;;;22.80;10.90;;;;;;;6.56;100.00;98597.56;5061806;28;20484;-81
2022/10/16 04:48:32;;;;;;;28.30;10.52;;;;;;;6.47;100.00;98581.88;5063906;28;20412;-81
2022/10/16 04:50:59;;;;;;;48.38;11.88;;;;;;;6.36;100.00;98576.00;5066504;28;20437;-82
2022/10/16 04:53:24;;;;;;;26.73;12.50;;;;;;;6.29;100.00;98570.00;5067018;28;20464;-81
2022/10/16 04:55:50;;;;;;;23.05;12.02;;;;;;;6.28;100.00;98567.38;5071998;28;20039;-81
2022/10/16 04:58:16;;;;;;;25.65;11.52;;;;;;;6.47;100.00;98595.16;5059077;28;20111;-81
2022/10/16 05:00:42;;;;;;;34.70;12.55;;;;;;;6.50;100.00;98600.38;5057023;28;20025;-81
2022/10/16 05:03:08;;;;;;;42.05;14.60;;;;;;;6.51;100.00;98603.03;5065760;28;20036;-81
2022/10/16 05:05:35;;;;;;;44.47;15.35;;;;;;;6.62;100.00;98617.75;5064639;28;20053;-83
2022/10/16 05:08:01;;;;;;;60.17;16.60;;;;;;;6.70;100.00;98629.06;5070980;28;20399;-81
2022/10/16 05:10:26;;;;;;;60.10;15.73;;;;;;;6.75;100.00;98628.00;5078225;28;20028;-83
2022/10/16 05:12:52;;;;;;;42.40;16.02;;;;;;;6.65;100.00;98604.38;5061122;28;20175;-82
2022/10/16 05:15:19;;;;;;;46.65;16.13;;;;;;;6.85;100.00;98632.16;5063043;28;20100;-81
2022/10/16 05:17:44;;;;;;;42.72;17.13;;;;;;;6.90;100.00;98640.84;5082283;28;20025;-81
2022/10/16 05:20:11;;;;;;;60.63;16.95;;;;;;;6.90;100.00;98632.88;5093350;28;20031;-81
2022/10/16 05:22:36;;;;;;;43.97;16.23;;;;;;;7.07;100.00;98640.34;5069182;28;20036;-83
2022/10/16 05:25:02;;;;;;;38.58;16.10;;;;;;;7.07;100.00;98635.88;5069599;28;20119;-81
2022/10/16 05:27:27;;;;;;;80.93;15.98;;;;;;;7.07;100.00;98630.56;5067372;28;20024;-82
2022/10/16 05:29:53;;;;;;;42.88;16.15;;;;;;;7.24;100.00;98642.47;5087012;28;20024;-82
2022/10/16 05:32:19;;;;;;;46.58;17.90;;;;;;;7.26;100.00;98635.34;5069804;28;20734;-82
2022/10/16 05:34:45;;;;;;;43.70;15.20;;;;;;;7.25;100.00;98625.59;5081843;28;20103;-83
2022/10/16 05:37:11;;;;;;;26.38;12.60;;;;;;;7.38;100.00;98632.28;5059559;28;20028;-82
2022/10/16 05:39:37;;;;;;;30.50;11.50;;;;;;;7.42;100.00;98625.91;5059340;28;20024;-83
2022/10/16 05:42:04;;;;;;;36.33;12.50;;;;;;;7.48;100.00;98623.94;5082217;28;20051;-82
2022/10/16 05:44:30;;;;;;;57.05;11.98;;;;;;;7.25;100.00;98591.00;5059789;28;20412;-82
2022/10/16 05:46:55;;;;;;;52.22;12.60;;;;;;;7.21;100.00;98614.19;5064326;28;20094;-77
2022/10/16 05:49:21;;;;;;;34.90;11.35;;;;;;;7.17;100.00;98619.66;5074227;28;20344;-75
2022/10/16 05:51:47;;;;;;;19.95;11.45;;;;;;;7.27;100.00;98634.41;5071142;28;20032;-82
2022/10/16 05:54:12;;;;;;;37.50;11.55;;;;;;;7.34;100.00;98641.28;5063088;28;20051;-76
2022/10/16 05:56:38;;;;;;;43.50;12.40;;;;;;;7.43;100.00;98641.88;5062319;28;20040;-75
2022/10/16 05:59:04;;;;;;;47.03;12.23;;;;;;;7.38;100.00;98637.59;5061607;28;20020;-75
2022/10/16 06:01:30;;;;;;;43.55;12.55;;;;;;;7.57;100.00;98652.94;5083431;28;20028;-75
2022/10/16 06:03:57;;;;;;;29.35;13.18;;;;;;;7.71;100.00;98648.94;5060805;28;20047;-81
2022/10/16 06:06:25;;;;;;;39.38;15.20;;;;;;;7.91;100.00;98649.16;5066908;28;20052;-76
2022/10/16 06:08:52;;;;;;;35.60;15.40;;;;;;;7.97;100.00;98639.16;5069192;28;20021;-81
2022/10/16 06:11:36;;;;;;;44.13;17.35;;;;;;;8.08;100.00;98647.69;5063035;28;20376;-75
2022/10/16 06:14:06;;;;;;;31.50;17.23;;;;;;;8.23;100.00;98646.25;5080791;28;20446;-81
2022/10/16 06:16:33;;;;;;;46.65;20.52;;;;;;;8.30;100.00;98644.28;5079156;28;20106;-81
2022/10/16 06:19:01;;;;;;;41.63;19.65;;;;;;;8.38;100.00;98642.22;5077306;28;20108;-81
2022/10/16 06:21:28;;;;;;;45.13;21.30;;;;;;;8.45;100.00;98633.09;5084528;28;20061;-83
2022/10/16 06:23:56;;;;;;;51.63;22.25;;;;;;;8.30;100.00;98617.63;5061549;28;20021;-81
2022/10/16 06:26:24;;;;;;;57.85;25.67;;;;;;;8.39;100.00;98646.63;5065032;28;20502;-79
2022/10/16 06:28:50;;;;;;;51.25;22.48;;;;;;;8.44;100.00;98636.66;5075465;28;20484;-81
2022/10/16 06:31:16;;;;;;;54.42;23.17;;;;;;;8.68;100.00;98647.31;5062900;28;20031;-83
2022/10/16 06:33:42;;;;;;;59.03;24.63;;;;;;;8.82;100.00;98643.28;5065552;28;20514;-84
2022/10/16 06:36:10;;;;;;;56.28;24.23;;;;;;;8.85;100.00;98648.50;5058829;28;20067;-83
2022/10/16 06:38:37;;;;;;;63.25;25.88;;;;;;;8.84;100.00;98636.94;5064921;28;20032;-83
2022/10/16 06:41:04;;;;;;;52.33;24.20;;;;;;;9.19;100.00;98657.84;5057925;28;20028;-83
2022/10/16 06:43:35;;;;;;;47.72;24.98;;;;;;;9.55;100.00;98658.19;5060781;28;20035;-85
2022/10/16 06:46:01;;;;;;;52.00;23.38;;;;;;;9.49;100.00;98649.53;5075714;28;20043;-83
2022/10/16 06:48:27;;;;;;;57.25;24.80;;;;;;;9.32;100.00;98614.63;5064998;28;20028;-86
2022/10/16 06:51:04;;;;;;;54.70;25.40;;;;;;;9.07;100.00;98604.94;5065389;28;20040;-83
2022/10/16 06:53:33;;;;;;;52.13;25.48;;;;;;;9.17;100.00;98642.78;5061614;28;20051;-83
2022/10/16 06:56:08;;;;;;;76.90;28.77;;;;;;;9.42;100.00;98645.34;5082911;28;20020;-84
2022/10/16 06:58:35;;;;;;;57.33;26.42;;;;;;;9.73;100.00;98652.09;5059515;28;20012;-76
2022/10/16 07:01:01;;;;;;;57.08;26.95;;;;;;;9.68;100.00;98629.16;5078675;28;20058;-77
2022/10/16 07:03:26;;;;;;;56.65;26.35;;;;;;;9.84;100.00;98638.31;5071239;28;20056;-75
2022/10/16 07:05:52;;;;;;;53.47;25.77;;;;;;;10.48;100.00;98657.84;5082686;28;20024;-77
2022/10/16 07:08:17;;;;;;;49.47;24.10;;;;;;;10.62;100.00;98644.72;5078234;28;20035;-75
2022/10/16 07:10:43;;;;;;;53.25;23.50;;;;;;;10.52;100.00;98623.81;5063337;28;20035;-76
2022/10/16 07:13:08;;;;;;;56.90;22.77;;;;;;;11.08;100.00;98648.84;5075618;28;20028;-78
2022/10/16 07:15:34;;;;;;;55.28;25.00;;;;;;;10.56;100.00;98618.22;5065559;28;20036;-78
2022/10/16 07:18:00;;;;;;;36.42;20.80;;;;;;;11.12;100.00;98642.41;5071624;28;20024;-78
2022/10/16 07:20:25;;;;;;;39.90;20.92;;;;;;;11.35;100.00;98620.75;5072346;28;20515;-86
2022/10/16 07:22:52;;;;;;;35.97;17.70;;;;;;;11.84;100.00;98629.16;5065205;28;20563;-76
2022/10/16 07:25:17;;;;;;;31.63;15.50;;;;;;;12.78;100.00;98641.22;5077522;28;20023;-77
2022/10/16 07:27:43;;;;;;;28.13;15.00;;;;;;;13.41;94.71;98634.16;5060520;28;20518;-76
2022/10/16 07:30:09;;;;;;;43.65;21.88;;;;;;;13.72;91.04;98598.34;5063560;28;20024;-75
2022/10/16 07:32:35;;;;;;;30.27;17.02;;;;;;;14.46;86.73;98602.00;5063349;28;20031;-78
2022/10/16 07:35:00;;;;;;;34.85;16.90;;;;;;;15.42;81.37;98580.63;5087365;28;20396;-77
2022/10/16 07:37:26;;;;;;;33.50;19.05;;;;;;;16.58;74.68;98560.22;5079065;28;20027;-76
2022/10/16 07:39:51;;;;;;;42.65;22.55;;;;;;;15.99;75.37;98513.03;5077926;28;20032;-76
2022/10/16 07:42:17;;;;;;;47.60;25.25;;;;;;;17.57;69.81;98521.47;5078955;28;20044;-76
2022/10/16 07:44:43;;;;;;;40.40;22.90;;;;;;;17.79;67.44;98483.69;5076766;28;20086;-77
2022/10/16 07:47:09;;;;;;;38.15;19.90;;;;;;;19.40;62.72;98478.00;5073514;28;20032;-77
2022/10/16 07:49:34;;;;;;;35.13;20.13;;;;;;;20.64;57.41;98451.97;5063724;28;20028;-78
2022/10/16 07:52:00;;;;;;;34.60;20.42;;;;;;;20.76;55.17;98427.28;5059411;28;20476;-78
2022/10/16 07:54:25;;;;;;;54.75;27.45;;;;;;;20.28;56.84;98413.41;5069938;28;20039;-82
2022/10/16 07:56:51;;;;;;;36.13;21.33;;;;;;;20.76;55.15;98410.94;5064754;28;20223;-83
2022/10/16 07:59:16;;;;;;;40.90;22.58;;;;;;;20.58;55.19;98398.97;5061940;28;20039;-82
2022/10/16 08:01:42;;;;;;;38.08;21.67;;;;;;;20.37;55.79;98390.00;5055418;28;20039;-83
2022/10/16 08:04:09;;;;;;;37.63;21.30;;;;;;;20.53;55.41;98395.81;5055615;28;20488;-82
2022/10/16 08:06:37;;;;;;;30.45;18.17;;;;;;;21.37;52.82;98387.22;5062156;28;20030;-84
2022/10/16 08:09:03;;;;;;;37.33;18.58;;;;;;;21.45;52.65;98378.31;5064584;28;20028;-83
2022/10/16 08:11:29;;;;;;;33.00;18.13;;;;;;;20.48;54.06;98349.16;5056721;28;20036;-83
2022/10/16 08:13:54;;;;;;;28.05;16.85;;;;;;;19.87;56.08;98354.50;5086393;28;20035;-82
2022/10/16 08:16:20;;;;;;;27.63;15.90;;;;;;;20.54;55.70;98375.78;5066967;28;20597;-82
2022/10/16 08:18:46;;;;;;;22.60;13.45;;;;;;;21.07;54.72;98366.34;5061260;28;20028;-82
2022/10/16 08:21:15;;;;;;;25.45;16.00;;;;;;;19.87;55.65;98340.91;5051128;28;20032;-83
2022/10/16 08:23:40;;;;;;;29.50;16.05;;;;;;;20.86;54.35;98362.88;5066974;28;20020;-83
2022/10/16 08:26:07;;;;;;;27.48;16.17;;;;;;;21.67;52.30;98358.13;5066130;28;20085;-82
2022/10/16 08:28:32;;;;;;;26.88;16.25;;;;;;;22.75;49.91;98343.97;5057288;28;20024;-83
2022/10/16 08:31:14;;;;;;;27.70;15.13;;;;;;;23.26;48.40;98350.69;5068369;28;20131;-83
2022/10/16 08:33:42;;;;;;;39.38;15.38;;;;;;;22.14;49.63;98317.22;5051024;28;20451;-82
2022/10/16 08:36:10;;;;;;;19.40;12.77;;;;;;;22.23;50.57;98325.50;5064910;28;20120;-83
2022/10/16 08:38:36;;;;;;;18.52;13.00;;;;;;;21.61;51.06;98318.72;5060367;28;20452;-84
2022/10/16 08:41:43;;;;;;;20.23;11.75;;;;;;;23.51;47.94;98336.28;5075937;28;20039;-81
2022/10/16 08:44:31;;;;;;;22.48;12.50;;;;;;;24.22;45.61;98326.97;5059431;28;20042;-82
2022/10/16 08:47:18;;;;;;;17.50;10.85;;;;;;;24.57;45.00;98325.13;5056172;28;20123;-83
2022/10/16 08:49:53;;;;;;;17.58;9.23;;;;;;;23.70;46.13;98304.19;5077618;28;20048;-82
2022/10/16 08:52:19;;;;;;;15.93;10.02;;;;;;;25.06;43.83;98321.59;5075823;28;20064;-82
2022/10/16 08:54:48;;;;;;;20.30;8.73;;;;;;;26.06;42.10;98310.38;5075308;28;20085;-83
2022/10/16 08:57:21;;;;;;;15.25;9.02;;;;;;;26.51;40.36;98303.47;5061086;28;20035;-82
2022/10/16 08:59:47;;;;;;;22.10;11.65;;;;;;;25.24;41.71;98294.94;5069945;28;20149;-82
2022/10/16 09:02:40;;;;;;;18.92;12.02;;;;;;;24.83;42.38;98295.84;5060321;28;20555;-82
2022/10/16 09:05:32;;;;;;;23.38;11.43;;;;;;;25.57;41.13;98286.75;5048742;28;20409;-84
2022/10/16 09:08:34;;;;;;;15.70;9.45;;;;;;;26.73;39.52;98298.03;5070151;28;20059;-84
2022/10/16 09:11:07;;;;;;;8.88;6.45;;;;;;;27.06;37.99;98279.56;5016107;28;20032;-83
2022/10/16 09:13:49;;;;;;;12.63;6.07;;;;;;;26.59;38.17;98267.75;5050422;28;20428;-83
2022/10/16 09:16:21;;;;;;;6.60;4.78;;;;;;;27.54;36.68;98283.03;5056882;28;20470;-83
2022/10/16 09:19:11;;;;;;;9.32;5.20;;;;;;;28.02;36.54;98270.75;5060331;28;20033;-84
2022/10/16 09:21:41;;;;;;;9.02;4.07;;;;;;;27.98;35.47;98257.38;5071998;28;20036;-83
2022/10/16 09:24:14;;;;;;;4.80;3.58;;;;;;;28.15;35.13;98255.31;5071503;28;20084;-84
2022/10/16 09:26:40;;;;;;;6.28;3.63;;;;;;;27.10;36.51;98239.69;5070395;28;20190;-83
2022/10/16 09:29:06;;;;;;;14.48;4.07;;;;;;;28.22;34.58;98253.53;5070636;28;20115;-84
2022/10/16 09:31:32;;;;;;;4.93;3.28;;;;;;;25.96;36.36;98213.75;5067252;28;20035;-83
2022/10/16 09:34:00;;;;;;;7.90;3.00;;;;;;;25.74;36.81;98219.97;5070537;28;20456;-85
2022/10/16 09:36:27;;;;;;;5.53;3.75;;;;;;;27.04;35.87;98245.06;5051045;28;20412;-84
2022/10/16 09:39:06;;;;;;;7.13;3.67;;;;;;;26.78;35.46;98218.75;5060774;28;20027;-84
2022/10/16 09:41:35;;;;;;;7.10;3.97;;;;;;;27.76;34.33;98228.03;5070886;28;20518;-84
2022/10/16 09:44:02;;;;;;;17.35;6.00;;;;;;;28.00;34.01;98221.41;5070566;28;20086;-84
2022/10/16 09:46:35;;;;;;;17.73;5.40;;;;;;;28.33;33.35;98211.78;5086353;28;20041;-84
2022/10/16 09:49:25;;;;;;;6.57;3.40;;;;;;;27.79;33.45;98202.03;5061585;28;20033;-84
2022/10/16 09:51:51;;;;;;;6.15;3.60;;;;;;;27.84;33.83;98202.34;5070855;28;20028;-84
2022/10/16 09:54:19;;;;;;;6.63;3.50;;;;;;;27.78;32.88;98186.59;5055326;28;20064;-84
2022/10/16 09:56:51;;;;;;;8.40;3.90;;;;;;;27.14;34.08;98183.34;5076699;28;20031;-84
2022/10/16 09:59:21;;;;;;;4.70;3.35;;;;;;;26.78;34.23;98179.44;5057430;28;20068;-84
2022/10/16 10:01:51;;;;;;;4.95;3.28;;;;;;;26.61;34.52;98177.84;5077415;28;20451;-84
2022/10/16 10:04:22;;;;;;;4.72;3.28;;;;;;;26.00;35.10;98175.84;5064865;28;20031;-83
2022/10/16 10:06:55;;;;;;;6.97;3.95;;;;;;;27.50;33.63;98191.00;5065233;28;20036;-83
2022/10/16 10:09:25;;;;;;;5.13;3.40;;;;;;;27.81;32.95;98169.72;5076439;28;20027;-83
2022/10/16 10:11:58;;;;;;;6.03;3.33;;;;;;;27.82;33.31;98174.16;5080490;28;20029;-83
2022/10/16 10:14:45;;;;;;;6.45;3.40;;;;;;;28.78;31.56;98185.06;5062688;28;20056;-84
2022/10/16 10:17:22;;;;;;;4.25;3.17;;;;;;;29.23;30.92;98173.69;5067587;28;20119;-82
2022/10/16 10:19:57;;;;;;;10.48;3.20;;;;;;;29.40;30.41;98163.28;5068236;28;20024;-83
2022/10/16 10:22:45;;;;;;;7.45;4.20;;;;;;;29.42;30.29;98159.25;5069192;28;20027;-82
2022/10/16 10:25:10;;;;;;;6.90;3.30;;;;;;;28.38;31.27;98153.41;5077328;28;20054;-83
2022/10/16 10:28:01;;;;;;;7.55;3.13;;;;;;;29.28;30.16;98145.56;5085318;28;20030;-83
2022/10/16 10:30:42;;;;;;;6.28;4.50;;;;;;;30.92;28.90;98168.66;5081000;28;20063;-83
2022/10/16 10:33:38;;;;;;;5.93;3.80;;;;;;;29.48;30.88;98141.91;5072416;28;20086;-84
2022/10/16 10:36:09;;;;;;;8.05;3.97;;;;;;;30.36;29.74;98163.34;5083517;28;20028;-83
2022/10/16 10:38:57;;;;;;;7.22;3.20;;;;;;;27.79;31.40;98136.03;5081154;28;20081;-84
2022/10/16 10:41:29;;;;;;;5.00;3.03;;;;;;;27.40;32.07;98136.25;5080620;28;20051;-83
2022/10/16 10:44:00;;;;;;;7.55;3.28;;;;;;;26.89;32.76;98148.84;5091966;28;20024;-84
2022/10/16 10:46:36;;;;;;;7.38;3.95;;;;;;;27.87;31.85;98153.28;5079671;28;20032;-84
2022/10/16 10:49:11;;;;;;;21.60;4.65;;;;;;;28.44;30.97;98147.13;5073287;28;20544;-83
2022/10/16 10:52:01;;;;;;;5.35;3.28;;;;;;;28.72;29.99;98139.88;5080153;28;20509;-84
2022/10/16 10:54:35;;;;;;;22.65;15.77;;;;;;;30.02;28.97;98150.38;5069459;28;20098;-83
2022/10/16 10:57:21;;;;;;;6.22;3.08;;;;;;;28.96;29.74;98136.75;5059843;28;20017;-84
2022/10/16 11:00:15;;;;;;;13.80;10.52;;;;;;;30.04;28.74;98141.91;5063947;28;20051;-85
2022/10/16 11:02:50;;;;;;;31.67;4.78;;;;;;;29.54;29.36;98124.56;5076022;28;20512;-84
2022/10/16 11:05:57;;;;;;;7.32;3.10;;;;;;;29.59;29.50;98127.56;5065970;28;20059;-84
2022/10/16 11:08:48;;;;;;;9.07;3.88;;;;;;;26.32;32.74;98097.03;5076328;28;20039;-85
2022/10/16 11:11:18;;;;;;;5.07;3.00;;;;;;;27.14;31.68;98130.28;5080269;28;20058;-85
2022/10/16 11:14:04;;;;;;;5.47;3.63;;;;;;;28.42;30.02;98135.47;5055747;28;20032;-83
2022/10/16 11:16:36;;;;;;;5.75;3.83;;;;;;;29.38;29.15;98130.38;5055322;28;20047;-84
2022/10/16 11:19:40;;;;;;;4.80;3.85;;;;;;;29.10;29.38;98121.19;5086128;28;20024;-84
2022/10/16 11:22:36;;;;;;;5.43;3.65;;;;;;;29.79;28.47;98121.34;5056923;28;20506;-84
2022/10/16 11:25:40;;;;;;;10.05;2.88;;;;;;;30.83;27.85;98125.69;5048929;28;20045;-84
2022/10/16 11:28:34;;;;;;;4.80;3.58;;;;;;;29.63;28.68;98105.94;5070114;28;20040;-85
2022/10/16 11:31:10;;;;;;;6.85;4.57;;;;;;;28.15;29.49;98111.41;5084639;28;20032;-86
2022/10/16 11:34:00;;;;;;;7.05;3.70;;;;;;;27.89;29.74;98106.34;5066648;28;20487;-86
2022/10/16 11:36:33;;;;;;;4.28;2.97;;;;;;;29.13;29.02;98119.94;5060679;28;20569;-85